Time;durP1;ratioP1;P1;durP2;ratioP2;P2;SDS_P1;SDS_P2;PMS_P1;PMS_P2;Temp;Humidity;BMP_temperature;BMP_pressure;BME280_temperature;BME280_humidity;BME280_pressure;Samples;Min_cycle;Max_cycle;Signal;HPM_P1;HPM_P2
2022/07/27 00:01:14;;;;;;;3.40;3.10;;;17.60;99.90;18.60;96804.00;;;;5079359;28;20281;-87
2022/07/27 00:04:03;;;;;;;5.10;4.10;;;17.50;99.90;18.60;96797.00;;;;5083376;28;20206;-87
2022/07/27 00:06:52;;;;;;;4.50;3.93;;;17.70;99.90;18.50;96802.00;;;;5082597;28;20211;-87
2022/07/27 00:09:41;;;;;;;5.67;3.73;;;17.30;99.90;18.30;96792.00;;;;5077468;28;20207;-86
2022/07/27 00:12:30;;;;;;;4.13;3.50;;;17.80;99.90;18.60;96783.00;;;;5084216;28;20200;-86
2022/07/27 00:15:20;;;;;;;6.83;3.40;;;17.40;99.90;18.50;96784.00;;;;5087150;28;20227;-85
2022/07/27 00:18:09;;;;;;;4.30;3.90;;;17.30;99.90;18.20;96780.00;;;;5079428;28;20215;-87
2022/07/27 00:20:59;;;;;;;5.67;4.47;;;17.10;99.90;18.00;96778.00;;;;5086015;28;20203;-87
2022/07/27 00:23:48;;;;;;;7.00;4.20;;;17.00;99.90;18.30;96779.00;;;;5080651;28;20215;-87
2022/07/27 00:26:36;;;;;;;4.80;4.33;;;17.00;99.90;18.40;96773.00;;;;5076479;28;20203;-86
2022/07/27 00:29:25;;;;;;;9.00;4.87;;;17.10;99.90;18.60;96766.00;;;;5085241;28;20211;-87
2022/07/27 00:32:16;;;;;;;3.90;3.50;;;17.60;99.90;18.60;96764.00;;;;5079250;28;20241;-86
2022/07/27 00:35:06;;;;;;;6.93;4.10;;;17.20;99.90;18.70;96770.00;;;;5077810;28;20230;-87
2022/07/27 00:37:55;;;;;;;4.03;3.63;;;17.30;99.90;18.60;96761.00;;;;5081296;28;20222;-87
2022/07/27 00:40:44;;;;;;;5.90;4.50;;;17.10;99.90;18.50;96762.00;;;;5079104;28;20211;-86
2022/07/27 00:43:33;;;;;;;4.63;4.00;;;17.20;99.90;18.30;96750.00;;;;5078701;28;20215;-85
2022/07/27 00:46:23;;;;;;;4.90;4.37;;;17.50;99.90;18.60;96755.00;;;;5080052;28;20313;-87
2022/07/27 00:49:13;;;;;;;4.63;3.57;;;17.30;99.90;18.80;96768.00;;;;5084309;28;20196;-87
2022/07/27 00:52:03;;;;;;;3.97;3.23;;;17.10;99.90;18.40;96761.00;;;;5079607;28;20195;-87
2022/07/27 00:54:53;;;;;;;6.27;3.57;;;17.20;99.90;18.20;96757.00;;;;5082233;28;20219;-87
2022/07/27 00:57:43;;;;;;;4.03;3.50;;;18.80;99.90;18.60;96752.00;;;;5079802;28;20220;-87
2022/07/27 01:00:32;;;;;;;5.97;3.67;;;17.00;99.90;18.60;96752.00;;;;5080949;28;20827;-87
2022/07/27 01:03:21;;;;;;;4.60;3.47;;;17.30;99.90;18.30;96748.00;;;;5081664;28;20201;-87
2022/07/27 01:06:12;;;;;;;4.70;3.67;;;17.10;99.90;18.40;96745.00;;;;5083627;28;20622;-87
2022/07/27 01:12:07;;;;;;;5.73;4.27;;;17.30;99.90;18.30;96749.00;;;;5080365;28;20187;-88
2022/07/27 01:14:58;;;;;;;3.63;3.20;;;17.10;99.90;17.90;96742.00;;;;5082991;28;20226;-86
2022/07/27 01:17:47;;;;;;;4.37;3.97;;;16.30;99.90;18.00;96745.00;;;;5081902;28;20219;-87
2022/07/27 01:20:36;;;;;;;5.27;3.60;;;17.40;99.90;18.10;96747.00;;;;5090857;28;20199;-87
2022/07/27 01:23:27;;;;;;;5.13;4.00;;;16.80;99.90;18.20;96744.00;;;;5086413;28;20776;-86
2022/07/27 01:26:16;;;;;;;4.33;3.93;;;17.80;99.90;18.20;96740.00;;;;5090215;28;20203;-87
2022/07/27 01:29:05;;;;;;;5.90;5.30;;;18.20;99.90;18.20;96743.00;;;;5087844;28;20203;-86
2022/07/27 01:31:54;;;;;;;4.43;4.03;;;16.90;99.90;18.10;96740.00;;;;5086800;28;20207;-86
2022/07/27 01:34:43;;;;;;;4.23;3.83;;;17.10;99.90;18.10;96735.00;;;;5080081;28;20216;-88
2022/07/27 01:37:32;;;;;;;6.57;4.43;;;16.80;99.90;18.30;96739.00;;;;5082330;28;20706;-87
2022/07/27 01:40:23;;;;;;;4.90;4.20;;;19.20;99.90;18.50;96748.00;;;;5086983;28;20667;-87
2022/07/27 01:43:12;;;;;;;4.13;3.70;;;15.60;99.90;18.60;96741.00;;;;5088093;28;20203;-86
2022/07/27 01:46:02;;;;;;;4.60;3.50;;;16.80;99.90;18.50;96745.00;;;;5083451;28;20202;-87
2022/07/27 01:48:51;;;;;;;4.90;3.67;;;16.50;99.90;18.60;96745.00;;;;5085911;28;20199;-88
2022/07/27 01:51:40;;;;;;;10.67;4.77;;;16.90;99.90;18.40;96739.00;;;;5083668;28;20199;-88
2022/07/27 01:54:29;;;;;;;4.50;3.70;;;17.30;99.90;18.40;96741.00;;;;5085134;28;20199;-88
2022/07/27 01:57:19;;;;;;;12.60;4.23;;;17.20;99.90;18.60;96730.00;;;;5079731;28;20224;-87
2022/07/27 02:00:11;;;;;;;4.97;4.17;;;16.90;99.90;18.80;96734.00;;;;5083947;28;20199;-87
2022/07/27 02:03:00;;;;;;;3.90;3.57;;;17.10;99.90;18.90;96730.00;;;;5080601;28;20203;-87
2022/07/27 02:05:49;;;;;;;2.87;2.57;;;17.30;99.90;18.60;96727.00;;;;5084059;28;20200;-87
2022/07/27 02:08:41;;;;;;;4.13;2.97;;;19.00;99.90;18.90;96726.00;;;;5088352;28;20231;-86
2022/07/27 02:14:37;;;;;;;3.37;3.07;;;17.80;99.90;18.50;96728.00;;;;5082005;28;20202;-89
2022/07/27 02:17:26;;;;;;;4.50;3.33;;;17.30;99.90;18.50;96720.00;;;;5082055;28;20227;-88
2022/07/27 02:20:18;;;;;;;4.47;4.07;;;17.10;99.90;18.30;96717.00;;;;5085017;28;20196;-87
2022/07/27 02:23:07;;;;;;;3.90;3.60;;;17.90;99.90;18.30;96725.00;;;;5088957;28;20226;-87
2022/07/27 02:25:56;;;;;;;3.93;3.53;;;17.30;99.90;18.50;96724.00;;;;5088109;28;20214;-85
2022/07/27 02:28:45;;;;;;;4.50;3.60;;;16.90;99.90;18.60;96709.00;;;;5086993;28;20230;-87
2022/07/27 02:31:35;;;;;;;4.70;3.90;;;17.20;99.90;18.40;96712.00;;;;5085409;28;20203;-88
2022/07/27 02:34:24;;;;;;;7.37;4.10;;;18.00;99.90;18.60;96715.00;;;;5085557;28;20195;-86
2022/07/27 02:37:13;;;;;;;3.97;3.40;;;16.90;99.90;18.30;96717.00;;;;5086256;28;20628;-87
2022/07/27 02:40:02;;;;;;;4.20;3.80;;;17.10;99.90;18.30;96713.00;;;;5088187;28;20203;-87
2022/07/27 02:42:51;;;;;;;3.57;3.23;;;17.10;99.90;18.40;96704.00;;;;5088781;28;20686;-86
2022/07/27 02:45:39;;;;;;;6.37;3.47;;;17.10;99.90;18.30;96709.00;;;;5087863;28;20207;-85
2022/07/27 02:48:31;;;;;;;4.57;3.43;;;17.10;99.90;18.30;96706.00;;;;5089419;28;20221;-86
2022/07/27 02:51:20;;;;;;;3.50;3.20;;;17.20;99.90;18.60;96701.00;;;;5086622;28;20202;-86
2022/07/27 02:54:09;;;;;;;6.53;3.73;;;17.20;99.90;18.70;96708.00;;;;5085586;28;20196;-87
2022/07/27 02:57:01;;;;;;;4.10;3.13;;;17.10;99.90;18.70;96706.00;;;;5081234;28;20234;-86
2022/07/27 02:59:50;;;;;;;3.47;2.93;;;17.10;99.90;18.70;96701.00;;;;5088143;28;20207;-84
2022/07/27 03:02:39;;;;;;;4.03;3.27;;;17.10;99.90;18.40;96699.00;;;;5082615;28;20195;-87
2022/07/27 03:05:30;;;;;;;4.60;3.50;;;17.10;99.90;18.40;96695.00;;;;5078949;28;20575;-87
2022/07/27 03:08:18;;;;;;;3.87;3.47;;;17.00;99.90;18.40;96697.00;;;;5088682;28;20227;-87
2022/07/27 03:11:07;;;;;;;3.83;3.20;;;17.10;99.90;18.40;96700.00;;;;5087674;28;20202;-86
2022/07/27 03:13:56;;;;;;;5.30;3.43;;;17.20;99.90;18.10;96710.00;;;;5085757;28;20566;-86
2022/07/27 03:16:45;;;;;;;5.80;3.40;;;16.90;99.90;18.30;96698.00;;;;5085843;28;20220;-87
2022/07/27 03:19:34;;;;;;;5.43;3.77;;;17.10;99.90;18.40;96701.00;;;;5078176;28;20207;-87
2022/07/27 03:22:24;;;;;;;4.93;3.37;;;17.10;99.90;18.30;96709.00;;;;5087272;28;20203;-87
2022/07/27 03:25:13;;;;;;;4.20;3.07;;;16.90;99.90;18.30;96709.00;;;;5080703;28;20199;-87
2022/07/27 03:28:01;;;;;;;3.77;3.20;;;16.90;99.90;18.30;96711.00;;;;5088521;28;20682;-87
2022/07/27 03:30:51;;;;;;;4.23;3.83;;;16.80;99.90;18.40;96718.00;;;;5088791;28;20204;-87
2022/07/27 03:33:41;;;;;;;5.00;4.07;;;17.20;99.90;18.40;96710.00;;;;5087584;28;20199;-86
2022/07/27 03:36:29;;;;;;;3.50;3.20;;;17.10;99.90;18.60;96716.00;;;;5086669;28;20229;-86
2022/07/27 03:39:20;;;;;;;3.80;3.07;;;17.00;99.90;18.70;96715.00;;;;5081081;28;20199;-86
2022/07/27 03:42:08;;;;;;;4.97;3.97;;;17.00;99.90;18.50;96710.00;;;;5088444;28;20196;-87
2022/07/27 03:44:57;;;;;;;5.03;3.33;;;17.10;99.90;18.50;96705.00;;;;5085215;28;20191;-86
2022/07/27 03:47:46;;;;;;;5.33;3.57;;;17.10;99.90;18.70;96699.00;;;;5085682;28;20219;-86
2022/07/27 03:50:35;;;;;;;4.80;3.03;;;16.90;99.90;18.60;96705.00;;;;5079682;28;20207;-87
2022/07/27 03:53:24;;;;;;;5.17;3.43;;;17.00;99.90;18.40;96694.00;;;;5092012;28;20214;-85
2022/07/27 03:56:14;;;;;;;6.87;3.53;;;17.10;99.90;18.60;96702.00;;;;5101372;28;20233;-87
2022/07/27 03:59:03;;;;;;;3.97;3.57;;;17.10;99.90;18.50;96707.00;;;;5097648;28;20203;-86
2022/07/27 04:01:52;;;;;;;4.10;3.77;;;17.10;99.90;18.40;96691.00;;;;5080284;28;20199;-87
2022/07/27 04:04:41;;;;;;;6.30;3.80;;;17.30;99.90;18.30;96687.00;;;;5089056;28;21013;-87
2022/07/27 04:07:29;;;;;;;4.07;3.10;;;17.00;99.90;18.50;96683.00;;;;5089672;28;20230;-86
2022/07/27 04:10:18;;;;;;;4.57;3.73;;;16.90;99.90;18.60;96695.00;;;;5089338;28;20199;-87
2022/07/27 04:13:08;;;;;;;4.60;3.63;;;17.00;99.90;18.70;96699.00;;;;5089687;28;20208;-87
2022/07/27 04:15:57;;;;;;;5.07;3.17;;;17.10;99.90;18.40;96694.00;;;;5088959;28;20739;-88
2022/07/27 04:18:46;;;;;;;5.53;3.47;;;16.90;99.90;18.50;96705.00;;;;5085677;28;20223;-86
2022/07/27 04:21:35;;;;;;;4.03;3.43;;;17.10;99.90;18.70;96697.00;;;;5079629;28;20581;-87
2022/07/27 04:24:24;;;;;;;4.73;3.27;;;17.10;99.90;18.90;96706.00;;;;5088975;28;20214;-86
2022/07/27 04:27:13;;;;;;;5.10;3.27;;;17.20;99.90;18.70;96700.00;;;;5088608;28;20230;-86
2022/07/27 04:30:03;;;;;;;3.93;2.67;;;17.10;99.90;18.60;96700.00;;;;5082805;28;20203;-87
2022/07/27 04:32:56;;;;;;;3.37;3.10;;;17.30;99.90;18.50;96708.00;;;;5088553;28;20203;-87
2022/07/27 04:35:44;;;;;;;6.83;3.03;;;17.20;99.90;18.50;96716.00;;;;5088939;28;20776;-88
2022/07/27 04:38:33;;;;;;;4.97;3.70;;;17.30;99.90;18.50;96712.00;;;;5086686;28;20237;-88
2022/07/27 04:41:22;;;;;;;4.17;3.37;;;17.20;99.90;18.80;96716.00;;;;5084432;28;20213;-87
2022/07/27 04:44:11;;;;;;;8.27;3.03;;;17.20;99.90;18.70;96715.00;;;;5086852;28;20222;-87
2022/07/27 04:47:01;;;;;;;3.60;3.20;;;17.40;99.90;18.40;96706.00;;;;5089399;28;20226;-87
2022/07/27 04:49:50;;;;;;;4.17;2.93;;;17.40;99.90;18.90;96707.00;;;;5079711;28;20208;-88
2022/07/27 04:52:38;;;;;;;7.23;3.40;;;17.40;99.90;19.10;96710.00;;;;5090510;28;20199;-87
2022/07/27 04:55:27;;;;;;;7.77;3.17;;;17.50;99.90;18.90;96705.00;;;;5091513;28;20206;-86
2022/07/27 04:58:16;;;;;;;5.00;3.40;;;17.40;99.90;18.90;96714.00;;;;5091861;28;20219;-87
2022/07/27 05:01:06;;;;;;;4.87;2.90;;;17.60;99.90;18.80;96715.00;;;;5090600;28;20655;-87
2022/07/27 05:03:56;;;;;;;5.43;3.70;;;17.90;99.90;18.80;96714.00;;;;5092188;28;20195;-87
2022/07/27 05:06:45;;;;;;;5.53;3.30;;;17.90;99.90;19.00;96706.00;;;;5091663;28;20207;-86
2022/07/27 05:09:34;;;;;;;5.50;3.47;;;17.40;99.90;18.90;96698.00;;;;5078219;28;20200;-86
2022/07/27 05:12:23;;;;;;;5.77;3.60;;;17.60;99.90;18.80;96707.00;;;;5091860;28;20580;-85
2022/07/27 05:15:12;;;;;;;7.63;3.53;;;17.60;99.90;18.90;96704.00;;;;5092734;28;20704;-86
2022/07/27 05:18:00;;;;;;;3.53;3.17;;;17.50;99.90;18.90;96713.00;;;;5090595;28;20231;-87
2022/07/27 05:20:50;;;;;;;3.10;2.80;;;17.60;99.90;19.00;96714.00;;;;5086166;28;20206;-88
2022/07/27 05:23:39;;;;;;;4.07;3.10;;;17.70;99.90;19.30;96716.00;;;;5090465;28;20215;-87
2022/07/27 05:26:28;;;;;;;3.50;3.17;;;17.50;99.90;19.50;96720.00;;;;5092291;28;20199;-87
2022/07/27 05:29:17;;;;;;;3.57;2.93;;;17.90;99.90;19.70;96713.00;;;;5091647;28;20682;-87
2022/07/27 05:32:07;;;;;;;3.47;3.03;;;18.10;99.90;19.40;96720.00;;;;5092038;28;20198;-88
2022/07/27 05:34:55;;;;;;;4.77;2.63;;;18.10;99.90;19.50;96722.00;;;;5092140;28;20211;-88
2022/07/27 05:37:46;;;;;;;3.10;2.77;;;17.80;99.90;19.80;96722.00;;;;5089986;28;20713;-87
2022/07/27 05:40:35;;;;;;;3.63;2.53;;;18.20;99.90;19.80;96729.00;;;;5091755;28;20207;-87
2022/07/27 05:43:24;;;;;;;5.70;3.13;;;18.50;99.90;20.00;96748.00;;;;5089861;28;20210;-86
2022/07/27 05:46:12;;;;;;;3.07;2.77;;;18.30;99.90;20.00;96743.00;;;;5090385;28;20215;-86
2022/07/27 05:49:01;;;;;;;3.20;2.57;;;18.30;99.90;20.50;96741.00;;;;5091216;28;20211;-87
2022/07/27 05:51:50;;;;;;;6.27;2.80;;;18.40;99.90;20.70;96731.00;;;;5090046;28;20195;-84
2022/07/27 05:54:40;;;;;;;3.80;3.13;;;18.60;99.90;20.80;96740.00;;;;5091539;28;20216;-85
2022/07/27 05:57:29;;;;;;;5.33;2.83;;;18.60;99.90;20.90;96751.00;;;;5090529;28;20227;-86
2022/07/27 06:00:20;;;;;;;7.00;2.63;;;18.80;99.90;21.00;96740.00;;;;5089667;28;20670;-86
2022/07/27 06:03:09;;;;;;;3.20;2.53;;;19.00;99.90;21.20;96749.00;;;;5090532;28;20204;-87
2022/07/27 06:09:01;;;;;;;2.73;2.50;;;19.20;99.90;21.40;96754.00;;;;5083204;28;20199;-87
2022/07/27 06:11:51;;;;;;;3.33;3.00;;;19.40;99.90;21.50;96758.00;;;;5084208;28;20207;-87
2022/07/27 06:14:39;;;;;;;6.43;2.87;;;19.50;99.90;21.50;96746.00;;;;5086282;28;20203;-88
2022/07/27 06:17:28;;;;;;;4.03;2.37;;;19.70;99.90;21.70;96749.00;;;;5091188;28;20709;-89
2022/07/27 06:20:17;;;;;;;2.97;2.70;;;19.60;99.90;21.60;96760.00;;;;5088674;28;20574;-88
2022/07/27 06:23:07;;;;;;;4.37;2.47;;;19.70;99.90;21.60;96759.00;;;;5090839;28;20215;-89
2022/07/27 06:25:57;;;;;;;7.77;3.40;;;19.80;99.90;21.70;96762.00;;;;5091357;28;20579;-87
2022/07/27 06:28:47;;;;;;;2.93;2.63;;;19.80;99.90;21.70;96767.00;;;;5089878;28;20274;-88
2022/07/27 06:31:36;;;;;;;5.97;2.73;;;19.80;99.90;21.70;96764.00;;;;5089894;28;20199;-88
2022/07/27 06:34:25;;;;;;;4.10;2.57;;;19.80;99.90;21.90;96760.00;;;;5080324;28;20203;-87
2022/07/27 06:37:14;;;;;;;3.20;2.33;;;19.90;99.90;21.90;96756.00;;;;5090694;28;20234;-87
2022/07/27 06:40:04;;;;;;;6.10;2.80;;;18.60;99.90;21.80;96762.00;;;;5090845;28;20218;-88
2022/07/27 06:42:53;;;;;;;3.57;2.70;;;20.00;99.90;22.00;96762.00;;;;5089576;28;20199;-88
2022/07/27 06:45:43;;;;;;;5.03;2.93;;;20.10;99.90;22.10;96765.00;;;;5079144;28;20215;-88
2022/07/27 06:48:33;;;;;;;3.00;2.60;;;20.30;99.90;22.20;96769.00;;;;5085434;28;20223;-88
2022/07/27 06:51:21;;;;;;;4.43;2.80;;;20.30;99.90;22.30;96768.00;;;;5089600;28;20230;-87
2022/07/27 06:54:10;;;;;;;4.30;2.50;;;20.30;99.90;22.40;96757.00;;;;5089393;28;20199;-88
2022/07/27 06:57:00;;;;;;;2.80;2.60;;;20.50;99.90;22.50;96751.00;;;;5097852;22;20233;-90
2022/07/27 06:59:50;;;;;;;4.83;2.63;;;20.70;99.90;22.80;96750.00;;;;5096496;28;20195;-89
2022/07/27 07:02:52;;;;;;;5.37;2.80;;;20.70;99.90;23.00;96757.00;;;;5093605;28;20198;-91
2022/07/27 07:05:47;;;;;;;7.53;2.97;;;20.90;99.90;23.10;96753.00;;;;5085141;28;20219;-89
2022/07/27 07:08:37;;;;;;;3.57;2.90;;;21.00;99.90;23.20;96750.00;;;;5089995;28;20204;-90
2022/07/27 07:11:26;;;;;;;5.67;2.07;;;21.30;99.90;23.30;96749.00;;;;5061554;28;20203;-88
2022/07/27 07:14:15;;;;;;;2.73;2.30;;;21.20;99.90;23.50;96747.00;;;;5073314;28;20200;-88
2022/07/27 07:17:04;;;;;;;4.63;2.67;;;21.40;99.90;23.50;96748.00;;;;5069729;28;20219;-88
2022/07/27 07:19:54;;;;;;;5.97;2.97;;;21.50;99.90;23.60;96741.00;;;;5061670;28;20220;-89
2022/07/27 07:22:52;;;;;;;3.67;2.53;;;21.60;99.90;23.80;96734.00;;;;5065997;28;20193;-90
2022/07/27 07:25:43;;;;;;;3.83;2.90;;;21.60;99.90;23.90;96725.00;;;;5062707;28;20224;-90
2022/07/27 07:28:36;;;;;;;7.90;2.90;;;22.00;99.90;23.90;96732.00;;;;5085584;28;20196;-89
2022/07/27 07:31:26;;;;;;;5.97;2.97;;;24.10;99.90;24.20;96729.00;;;;5085575;28;20198;-89
2022/07/27 07:34:16;;;;;;;10.67;3.77;;;23.50;99.90;24.30;96724.00;;;;5096241;28;20191;-89
2022/07/27 07:37:23;;;;;;;7.53;4.03;;;22.50;99.90;24.20;96722.00;;;;5072205;28;20231;-89
2022/07/27 07:40:36;;;;;;;4.97;2.70;;;22.60;99.90;24.20;96728.00;;;;5082576;28;20192;-89
2022/07/27 07:43:39;;;;;;;3.73;2.57;;;22.30;99.90;23.80;96724.00;;;;5081621;28;20204;-91
2022/07/27 07:46:45;;;;;;;2.87;2.33;;;22.30;99.90;24.00;96717.00;;;;5079148;28;20236;-91
2022/07/27 07:49:46;;;;;;;5.43;2.83;;;22.90;99.90;23.90;96724.00;;;;5090500;28;20203;-91
2022/07/27 07:52:55;;;;;;;2.70;2.50;;;22.30;99.90;24.10;96730.00;;;;5073754;28;20199;-90
2022/07/27 07:56:04;;;;;;;5.77;2.80;;;22.20;99.90;24.10;96739.00;;;;5078713;28;20228;-89
2022/07/27 07:59:04;;;;;;;4.17;2.63;;;22.70;99.90;24.00;96739.00;;;;5070532;28;20208;-90
2022/07/27 08:02:05;;;;;;;3.33;2.23;;;22.50;99.90;24.10;96735.00;;;;5064767;28;20215;-90
2022/07/27 08:05:08;;;;;;;3.00;2.47;;;22.30;99.90;23.80;96736.00;;;;5069420;28;20199;-90
2022/07/27 08:08:17;;;;;;;7.90;3.50;;;20.90;99.90;23.90;96728.00;;;;5069456;28;20200;-92
2022/07/27 08:11:10;;;;;;;4.03;3.57;;;22.90;99.90;23.70;96734.00;;;;5065212;28;20204;-90
2022/07/27 08:14:14;;;;;;;8.70;2.67;;;22.40;99.90;23.90;96733.00;;;;5066979;28;20200;-90
2022/07/27 08:20:57;;;;;;;8.67;3.73;;;24.10;99.90;24.00;96739.00;;;;5079377;28;20214;-89
2022/07/27 08:24:32;;;;;;;5.40;3.43;;;21.90;99.90;23.90;96749.00;;;;5077924;28;20196;-90
2022/07/27 08:32:06;;;;;;;3.20;2.90;;;23.00;99.90;23.90;96742.00;;;;5102042;28;20191;-91
2022/07/27 08:35:42;;;;;;;4.17;3.40;;;22.20;99.90;23.90;96755.00;;;;5092207;28;20192;-90
2022/07/27 09:02:39;;;;;;;8.97;3.30;;;24.50;99.90;23.70;96784.00;;;;5059826;28;20189;-91
2022/07/27 09:05:42;;;;;;;4.50;3.20;;;22.70;99.90;23.60;96784.00;;;;5084176;22;20715;-65
2022/07/27 09:08:32;;;;;;;3.60;2.50;;;22.00;99.90;23.70;96774.00;;;;5075245;28;20216;-66
2022/07/27 09:11:21;;;;;;;7.70;3.57;;;22.60;99.90;23.60;96776.00;;;;5078034;28;20671;-67
2022/07/27 09:14:13;;;;;;;4.13;2.73;;;21.90;99.90;23.50;96767.00;;;;5076614;28;20223;-66
2022/07/27 09:17:21;;;;;;;4.57;3.10;;;21.90;99.90;23.40;96770.00;;;;5067781;28;20208;-66
2022/07/27 09:20:30;;;;;;;5.13;3.37;;;22.00;99.90;23.70;96768.00;;;;5077816;28;20281;-66
2022/07/27 09:23:27;;;;;;;3.20;2.90;;;22.10;99.90;23.50;96771.00;;;;5063242;28;20223;-65
2022/07/27 09:26:19;;;;;;;5.70;3.47;;;21.80;99.90;23.30;96764.00;;;;5070035;28;20590;-66
2022/07/27 09:29:34;;;;;;;3.37;2.90;;;21.70;99.90;23.00;96768.00;;;;5059264;28;20280;-65
2022/07/27 09:32:23;;;;;;;5.50;3.63;;;21.70;99.90;22.90;96772.00;;;;5047739;28;20627;-65
2022/07/27 09:35:17;;;;;;;3.43;3.10;;;21.40;99.90;22.70;96766.00;;;;5059646;28;20207;-67
2022/07/27 09:38:18;;;;;;;3.50;3.03;;;21.50;99.90;22.20;96776.00;;;;5061381;28;20614;-65
2022/07/27 09:41:07;;;;;;;3.40;3.10;;;21.30;99.90;22.00;96765.00;;;;5057809;28;20207;-65
2022/07/27 09:43:57;;;;;;;4.03;3.10;;;21.20;99.90;22.20;96769.00;;;;5051420;28;20227;-64
2022/07/27 09:47:21;;;;;;;4.10;3.43;;;21.10;99.90;21.80;96767.00;;;;5060101;28;20283;-68
2022/07/27 09:50:18;;;;;;;4.80;4.07;;;21.00;99.90;21.80;96750.00;;;;5061146;28;21019;-64
2022/07/27 09:53:20;;;;;;;5.80;3.33;;;20.80;99.90;21.90;96745.00;;;;5058222;28;20239;-68
2022/07/27 09:56:30;;;;;;;7.13;3.43;;;20.80;99.90;22.30;96742.00;;;;5049070;28;20239;-67
2022/07/27 09:59:19;;;;;;;5.87;3.83;;;20.70;99.90;22.70;96733.00;;;;5062242;28;20582;-65
2022/07/27 10:02:08;;;;;;;4.00;3.27;;;21.00;99.90;22.60;96732.00;;;;5057510;28;20216;-65
2022/07/27 10:04:58;;;;;;;5.37;3.43;;;21.10;99.90;22.90;96736.00;;;;5060464;28;20679;-65
2022/07/27 10:07:47;;;;;;;3.60;3.17;;;21.10;99.90;23.10;96727.00;;;;5059158;28;20204;-67
2022/07/27 10:10:36;;;;;;;5.20;3.63;;;21.30;99.90;23.20;96714.00;;;;5059429;28;20191;-67
2022/07/27 10:13:25;;;;;;;3.10;2.80;;;21.40;99.90;23.40;96707.00;;;;5058688;28;20216;-66
2022/07/27 10:16:18;;;;;;;3.73;3.43;;;21.70;99.90;23.20;96705.00;;;;5058183;28;20212;-68
2022/07/27 10:19:13;;;;;;;6.43;3.97;;;21.70;99.90;23.30;96693.00;;;;5051908;28;20208;-65
2022/07/27 10:22:03;;;;;;;4.90;3.47;;;21.90;99.90;23.80;96711.00;;;;5059147;28;20219;-65
2022/07/27 10:24:59;;;;;;;3.43;3.07;;;22.00;99.90;23.60;96717.00;;;;5061310;28;20403;-65
2022/07/27 10:27:49;;;;;;;3.47;3.17;;;22.10;99.90;23.80;96720.00;;;;5048923;28;20200;-65
2022/07/27 10:30:38;;;;;;;4.63;3.30;;;22.30;99.90;24.30;96721.00;;;;5058921;28;21929;-65
2022/07/27 10:33:43;;;;;;;3.80;3.00;;;22.40;99.90;24.40;96725.00;;;;5062221;28;20607;-66
2022/07/27 10:36:48;;;;;;;3.97;3.20;;;22.50;99.90;24.70;96721.00;;;;5067456;28;20196;-66
2022/07/27 10:39:42;;;;;;;4.17;3.13;;;22.70;99.90;24.60;96722.00;;;;5054775;28;20214;-64
2022/07/27 10:42:31;;;;;;;6.30;2.90;;;22.80;99.90;24.50;96715.00;;;;5063961;28;20666;-65
2022/07/27 10:45:20;;;;;;;5.57;3.30;;;22.90;99.90;24.80;96712.00;;;;5052482;28;20193;-66
2022/07/27 10:48:35;;;;;;;2.63;2.43;;;22.90;99.90;25.10;96707.00;;;;5050677;28;20706;-66
2022/07/27 10:51:35;;;;;;;4.23;3.83;;;23.30;99.90;25.40;96709.00;;;;5051688;28;20205;-66
2022/07/27 10:54:31;;;;;;;6.80;3.63;;;23.50;99.90;26.10;96707.00;;;;5060854;28;20483;-66
2022/07/27 10:57:27;;;;;;;3.20;2.90;;;23.70;99.90;26.20;96713.00;;;;5055914;28;20671;-65
2022/07/27 11:00:16;;;;;;;3.43;3.13;;;24.10;99.90;26.20;96708.00;;;;5059164;28;20261;-65
2022/07/27 11:03:07;;;;;;;3.93;3.57;;;24.30;99.90;26.60;96717.00;;;;5054569;28;20599;-66
2022/07/27 11:05:56;;;;;;;4.30;3.83;;;24.50;99.90;27.30;96703.00;;;;5057529;28;20219;-66
2022/07/27 11:08:49;;;;;;;4.20;3.83;;;24.70;99.90;26.80;96706.00;;;;5057683;28;20198;-66
2022/07/27 11:11:50;;;;;;;7.60;3.50;;;24.90;99.90;27.00;96714.00;;;;5062487;28;20205;-66
2022/07/27 11:14:49;;;;;;;3.50;3.07;;;25.20;99.90;25.80;96711.00;;;;5058633;28;20225;-70
2022/07/27 11:17:49;;;;;;;3.93;3.53;;;25.00;99.90;26.10;96716.00;;;;5043979;28;20202;-65
2022/07/27 11:20:47;;;;;;;3.90;3.50;;;24.80;99.90;26.40;96722.00;;;;5051865;28;20231;-66
2022/07/27 11:23:35;;;;;;;4.20;3.63;;;24.80;99.90;26.80;96721.00;;;;5051433;28;20235;-66
2022/07/27 11:26:45;;;;;;;3.50;3.20;;;24.70;99.90;26.10;96727.00;;;;5062593;28;20188;-66
2022/07/27 11:29:36;;;;;;;4.10;3.70;;;24.70;99.90;26.00;96718.00;;;;5056683;28;20225;-66
2022/07/27 11:32:26;;;;;;;4.87;3.17;;;24.60;99.90;26.10;96723.00;;;;5049908;28;20700;-66
2022/07/27 11:35:15;;;;;;;4.83;3.10;;;24.60;99.90;26.30;96726.00;;;;5055623;28;20216;-66
2022/07/27 11:38:07;;;;;;;6.10;3.67;;;24.50;99.90;26.20;96722.00;;;;5055324;28;20200;-66
2022/07/27 11:40:56;;;;;;;3.20;2.90;;;24.50;99.90;25.70;96721.00;;;;5055607;28;20208;-67
2022/07/27 11:43:50;;;;;;;4.00;3.70;;;24.50;99.90;25.80;96725.00;;;;5054273;28;20230;-65
2022/07/27 11:46:42;;;;;;;6.60;3.93;;;24.40;99.90;25.90;96722.00;;;;5057389;28;20212;-65
2022/07/27 11:49:33;;;;;;;5.23;3.63;;;24.30;99.90;25.70;96728.00;;;;5056654;28;20617;-65
2022/07/27 11:52:24;;;;;;;4.53;3.80;;;24.30;99.90;26.00;96725.00;;;;5055778;28;20292;-65
2022/07/27 11:55:13;;;;;;;5.10;3.97;;;24.20;99.90;26.00;96728.00;;;;5046030;28;20192;-65
2022/07/27 11:58:03;;;;;;;4.60;3.93;;;24.20;99.90;26.00;96722.00;;;;5049001;28;20200;-66
2022/07/27 12:00:52;;;;;;;3.60;3.30;;;24.00;99.90;25.80;96722.00;;;;5057695;28;20208;-65
2022/07/27 12:03:41;;;;;;;4.33;3.67;;;24.10;99.90;25.40;96721.00;;;;5055358;28;20230;-65
2022/07/27 12:06:32;;;;;;;3.60;3.30;;;24.10;99.90;25.20;96731.00;;;;5053942;28;20215;-67
2022/07/27 12:09:21;;;;;;;4.27;3.47;;;24.00;99.90;25.30;96727.00;;;;5062726;28;20233;-66
2022/07/27 12:12:14;;;;;;;4.17;3.73;;;23.90;99.90;25.40;96726.00;;;;5057663;28;20192;-64
2022/07/27 12:15:17;;;;;;;4.17;3.77;;;23.80;99.90;25.60;96733.00;;;;5052909;28;20988;-66
2022/07/27 12:18:26;;;;;;;4.27;3.77;;;23.70;99.90;25.60;96732.00;;;;5056633;28;20278;-65
2022/07/27 12:21:18;;;;;;;5.30;3.77;;;23.70;99.90;25.70;96732.00;;;;5056961;28;20735;-65
2022/07/27 12:24:09;;;;;;;5.30;3.00;;;23.70;99.90;25.70;96730.00;;;;5053103;28;20620;-65
2022/07/27 12:27:07;;;;;;;4.57;3.77;;;24.20;99.90;25.80;96732.00;;;;5054554;28;20266;-66
2022/07/27 12:30:06;;;;;;;7.13;3.70;;;23.80;99.90;25.80;96731.00;;;;5055847;28;20261;-65
2022/07/27 12:32:55;;;;;;;5.27;3.87;;;24.00;99.90;25.80;96731.00;;;;5057948;28;20235;-66
2022/07/27 12:35:46;;;;;;;3.63;3.13;;;23.90;99.90;25.70;96732.00;;;;5054120;28;20977;-66
2022/07/27 12:38:39;;;;;;;3.73;3.20;;;23.80;99.90;25.50;96731.00;;;;5046288;28;20215;-66
2022/07/27 12:41:34;;;;;;;3.73;3.33;;;23.90;99.90;25.30;96722.00;;;;5063609;28;20798;-65
2022/07/27 12:44:33;;;;;;;6.00;3.73;;;23.90;99.90;25.40;96723.00;;;;5043916;28;20225;-66
2022/07/27 12:50:29;;;;;;;4.93;3.57;;;23.70;99.90;25.30;96726.00;;;;5060428;28;20691;-66
2022/07/27 12:53:17;;;;;;;3.87;3.23;;;23.50;99.90;25.30;96735.00;;;;5056222;28;20228;-66
2022/07/27 12:56:09;;;;;;;3.00;2.80;;;23.50;99.90;25.20;96721.00;;;;5060877;28;20200;-66
2022/07/27 12:59:00;;;;;;;5.40;3.27;;;23.50;99.90;25.10;96729.00;;;;5054799;28;20208;-66
2022/07/27 13:01:50;;;;;;;4.23;3.67;;;23.40;99.90;25.10;96727.00;;;;5059250;28;20203;-65
2022/07/27 13:04:38;;;;;;;3.67;3.10;;;23.40;99.90;25.10;96723.00;;;;5054417;28;20615;-66
2022/07/27 13:07:27;;;;;;;7.60;3.83;;;23.50;99.90;25.10;96721.00;;;;5053289;28;20230;-66
2022/07/27 13:10:18;;;;;;;5.53;3.60;;;23.40;99.90;25.10;96725.00;;;;5053475;28;20224;-66
2022/07/27 13:13:08;;;;;;;4.40;3.40;;;23.30;99.90;25.10;96723.00;;;;5059469;28;20227;-66
2022/07/27 13:15:58;;;;;;;4.13;3.43;;;23.30;99.90;25.00;96720.00;;;;5054310;28;20204;-66
2022/07/27 13:18:48;;;;;;;4.17;3.73;;;23.50;99.90;25.00;96715.00;;;;5054864;28;20208;-66
2022/07/27 13:21:36;;;;;;;4.50;3.73;;;23.40;99.90;24.70;96715.00;;;;5055477;28;20688;-65
2022/07/27 13:24:25;;;;;;;5.03;3.00;;;23.20;99.90;24.80;96724.00;;;;5058016;28;20220;-65
2022/07/27 13:27:14;;;;;;;3.80;3.37;;;23.20;99.90;24.60;96721.00;;;;5053913;28;20197;-66
2022/07/27 13:30:04;;;;;;;4.53;3.20;;;23.20;99.90;24.50;96713.00;;;;5052339;28;20221;-65